Time;durP1;ratioP1;P1;durP2;ratioP2;P2;SDS_P1;SDS_P2;PMS_P1;PMS_P2;Temp;Humidity;BMP_temperature;BMP_pressure;BME280_temperature;BME280_humidity;BME280_pressure;Samples;Min_cycle;Max_cycle;Signal;HPM_P1;HPM_P2
2022/12/19 00:01:17;;;;;;;;;74.25;56.75;;;;;7.99;48.54;101538.19;5009039;28;8975;-78
2022/12/19 00:03:49;;;;;;;;;79.25;62.75;;;;;7.97;48.73;101519.03;5010121;28;8840;-78
2022/12/19 00:06:19;;;;;;;;;88.67;66.67;;;;;7.95;50.01;101525.88;5026716;28;8852;-78
2022/12/19 00:08:49;;;;;;;;;81.25;62.25;;;;;7.98;49.50;101528.63;5006576;28;8952;-79
2022/12/19 00:11:20;;;;;;;;;78.67;62.67;;;;;7.80;49.54;101532.19;4990473;28;9085;-79
2022/12/19 00:13:49;;;;;;;;;79.75;62.25;;;;;7.85;49.00;101532.41;4974008;28;9097;-79
2022/12/19 00:16:19;;;;;;;;;85.00;66.67;;;;;7.85;49.82;101540.19;5005254;28;8830;-78
2022/12/19 00:18:51;;;;;;;;;76.25;59.50;;;;;7.73;49.12;101544.84;4990367;28;8965;-79
2022/12/19 00:21:24;;;;;;;;;81.50;64.00;;;;;7.80;48.68;101559.88;5006547;28;8913;-79
2022/12/19 00:23:53;;;;;;;;;62.00;51.50;;;;;7.81;47.14;101554.75;5006406;28;8866;-78
2022/12/19 00:26:24;;;;;;;;;74.50;58.25;;;;;7.61;47.36;101555.59;4989819;28;8834;-79
2022/12/19 00:28:55;;;;;;;;;72.00;58.50;;;;;7.44;49.33;101544.47;4990247;28;8961;-78
2022/12/19 00:31:26;;;;;;;;;81.50;64.00;;;;;7.39;49.14;101531.31;4989732;28;8870;-78
2022/12/19 00:33:57;;;;;;;;;82.50;64.25;;;;;7.42;49.96;101540.91;5005310;28;9686;-80
2022/12/19 00:36:27;;;;;;;;;80.00;62.00;;;;;7.45;49.26;101534.97;5006832;28;8858;-79
2022/12/19 00:38:59;;;;;;;;;86.33;69.00;;;;;7.26;50.17;101525.47;5006542;28;9026;-78
2022/12/19 00:41:29;;;;;;;;;81.75;63.75;;;;;7.40;50.47;101543.44;4990175;28;9005;-78
2022/12/19 00:44:00;;;;;;;;;82.00;63.67;;;;;7.45;50.54;101542.75;4990496;28;8874;-76
2022/12/19 00:46:32;;;;;;;;;83.00;64.67;;;;;7.42;49.96;101547.00;4980380;28;8993;-78
2022/12/19 00:49:03;;;;;;;;;77.00;61.67;;;;;7.48;49.44;101554.16;5029891;28;9100;-77
2022/12/19 00:51:34;;;;;;;;;70.00;54.00;;;;;7.50;48.75;101556.84;4995985;28;9101;-77
2022/12/19 00:54:04;;;;;;;;;57.75;45.75;;;;;7.41;47.35;101559.94;5027702;28;8874;-78
2022/12/19 00:56:36;;;;;;;;;72.75;58.75;;;;;7.34;47.33;101558.75;5012168;28;8880;-80
2022/12/19 00:59:08;;;;;;;;;79.00;62.25;;;;;7.44;48.53;101556.56;4997627;28;9028;-78
2022/12/19 01:01:39;;;;;;;;;81.33;62.67;;;;;7.51;49.65;101561.22;5015112;28;8842;-78
2022/12/19 01:04:13;;;;;;;;;79.00;62.00;;;;;7.60;48.95;101567.69;5010779;28;8954;-78
2022/12/19 01:07:04;;;;;;;;;81.33;62.33;;;;;7.58;50.04;101556.38;5040954;28;9258;-79
2022/12/19 01:09:35;;;;;;;;;88.33;65.33;;;;;7.50;49.52;101543.84;5024099;28;9038;-80
2022/12/19 01:14:54;;;;;;;;;76.50;61.75;;;;;7.49;49.28;101552.47;5012883;28;9265;-77
2022/12/19 01:17:33;;;;;;;;;83.00;62.33;;;;;7.48;48.98;101550.69;4995581;28;8858;-78
2022/12/19 01:20:15;;;;;;;;;20.75;16.75;;;;;7.57;49.24;101553.69;4996357;28;8942;-80
2022/12/19 01:22:46;;;;;;;;;74.50;59.75;;;;;7.55;48.70;101548.44;5028971;28;8977;-77
2022/12/19 01:25:15;;;;;;;;;81.00;61.25;;;;;7.61;48.98;101555.59;5029464;28;8856;-78
2022/12/19 01:27:43;;;;;;;;;82.67;64.00;;;;;7.67;49.00;101549.78;5031850;28;8902;-75
2022/12/19 01:30:13;;;;;;;;;76.50;60.25;;;;;7.61;48.52;101542.63;5032378;28;9040;-77
2022/12/19 01:32:42;;;;;;;;;67.25;53.25;;;;;7.60;47.47;101540.88;5032706;28;8844;-78
2022/12/19 01:35:11;;;;;;;;;71.75;59.00;;;;;7.57;49.13;101538.13;5014598;28;8874;-77
2022/12/19 01:37:51;;;;;;;;;68.25;55.50;;;;;7.57;48.09;101533.81;5043657;28;8897;-77
2022/12/19 01:40:25;;;;;;;;;68.00;55.25;;;;;7.64;47.42;101529.78;5028870;28;8893;-78
2022/12/19 01:42:53;;;;;;;;;52.50;48.25;;;;;7.65;48.55;101531.53;5014078;28;8973;-77
2022/12/19 01:45:28;;;;;;;;;54.50;44.50;;;;;7.74;47.49;101528.47;5011001;28;8854;-77
2022/12/19 01:48:14;;;;;;;;;64.00;49.25;;;;;7.61;45.89;101525.31;5027267;28;8908;-78
2022/12/19 01:50:57;;;;;;;;;75.25;52.00;;;;;7.58;46.75;101524.28;5027212;28;9615;-78
2022/12/19 01:53:39;;;;;;;;;62.00;50.75;;;;;7.54;46.69;101533.69;5010928;28;8883;-78
2022/12/19 01:56:19;;;;;;;;;56.50;45.50;;;;;7.54;46.78;101525.91;5011342;28;8841;-77
2022/12/19 01:58:52;;;;;;;;;60.00;49.25;;;;;7.61;46.12;101522.72;4976533;28;9709;-77
2022/12/19 02:01:38;;;;;;;;;61.50;49.25;;;;;7.62;46.22;101513.25;5019904;28;8875;-78
2022/12/19 02:04:25;;;;;;;;;50.00;44.25;;;;;7.62;45.54;101513.25;5046790;28;8851;-77
2022/12/19 02:06:59;;;;;;;;;61.50;47.50;;;;;7.59;46.34;101506.19;5013505;28;8848;-79
2022/12/19 02:09:46;;;;;;;;;61.00;46.75;;;;;7.65;46.47;101504.69;5030295;28;8871;-77
2022/12/19 02:12:36;;;;;;;;;45.25;39.25;;;;;7.62;46.85;101508.06;5014335;28;8843;-78
2022/12/19 02:15:08;;;;;;;;;52.00;43.75;;;;;7.56;45.97;101512.97;5029646;28;8940;-77
2022/12/19 02:17:51;;;;;;;;;52.00;42.50;;;;;7.53;45.75;101507.66;5026549;28;8846;-78
2022/12/19 02:20:51;;;;;;;;;51.75;43.50;;;;;7.70;45.44;101509.25;5026762;28;8941;-78
2022/12/19 02:23:59;;;;;;;;;58.00;45.25;;;;;7.63;46.18;101508.94;5009370;28;8893;-78
2022/12/19 02:26:54;;;;;;;;;56.25;45.25;;;;;7.67;45.94;101509.13;4956808;28;8892;-76
2022/12/19 02:29:50;;;;;;;;;54.25;43.50;;;;;7.65;45.73;101504.69;4964512;28;8846;-77
2022/12/19 02:32:23;;;;;;;;;49.25;44.25;;;;;7.54;45.83;101505.13;4992204;28;8862;-78
2022/12/19 02:34:58;;;;;;;;;50.00;44.75;;;;;7.53;45.66;101505.06;4992347;28;8850;-78
2022/12/19 02:37:31;;;;;;;;;48.75;42.75;;;;;7.51;45.31;101501.50;5008403;28;9647;-77
2022/12/19 02:40:09;;;;;;;;;57.50;45.75;;;;;7.50;46.17;101498.00;4992359;28;8866;-77
2022/12/19 02:42:41;;;;;;;;;49.25;41.25;;;;;7.44;46.26;101499.47;4975971;28;8906;-76
2022/12/19 02:45:14;;;;;;;;;54.75;43.25;;;;;7.46;45.72;101496.09;4990994;28;8842;-76
2022/12/19 02:47:53;;;;;;;;;48.25;42.50;;;;;7.37;45.89;101495.69;4992470;28;8850;-78
2022/12/19 02:50:23;;;;;;;;;56.25;44.00;;;;;7.40;46.10;101493.25;4975947;28;8904;-77
2022/12/19 02:52:52;;;;;;;;;50.50;45.75;;;;;7.46;46.83;101492.63;4972268;28;8879;-78
2022/12/19 02:55:24;;;;;;;;;63.00;48.00;;;;;7.50;45.60;101485.03;4972265;28;8938;-77
2022/12/19 02:58:13;;;;;;;;;64.50;49.00;;;;;7.68;46.42;101492.72;5006808;28;8837;-78
2022/12/19 03:00:51;;;;;;;;;63.25;47.00;;;;;7.66;46.07;101494.38;4976546;28;8860;-77
2022/12/19 03:03:29;;;;;;;;;54.25;45.50;;;;;7.63;46.34;101498.56;5027718;28;8868;-77
2022/12/19 03:06:12;;;;;;;;;50.25;40.25;;;;;7.73;45.88;101488.63;4997749;28;9612;-78
2022/12/19 03:08:48;;;;;;;;;52.50;45.50;;;;;7.76;45.50;101483.56;5013895;28;8953;-77
2022/12/19 03:11:17;;;;;;;;;44.00;39.50;;;;;7.75;44.72;101489.59;5014371;28;9030;-76
2022/12/19 03:13:54;;;;;;;;;51.75;46.00;;;;;7.75;45.28;101486.06;5013627;28;9014;-77
2022/12/19 03:16:25;;;;;;;;;36.50;33.25;;;;;7.52;45.07;101479.91;5011790;28;8859;-76
2022/12/19 03:18:57;;;;;;;;;62.25;46.75;;;;;7.57;46.10;101483.59;5027665;28;8863;-77
2022/12/19 03:21:32;;;;;;;;;60.75;47.25;;;;;7.61;45.60;101482.91;4978025;28;8824;-77
2022/12/19 03:24:02;;;;;;;;;53.50;46.00;;;;;7.53;45.14;101490.38;5008372;28;8873;-77
2022/12/19 03:26:35;;;;;;;;;60.00;47.25;;;;;7.52;46.04;101498.06;5026329;28;8842;-78
2022/12/19 03:29:09;;;;;;;;;52.50;44.25;;;;;7.49;46.44;101493.66;5025906;28;8900;-78
2022/12/19 03:31:39;;;;;;;;;46.25;43.50;;;;;7.44;45.93;101494.28;4976240;28;8886;-79
2022/12/19 03:34:15;;;;;;;;;57.25;46.00;;;;;7.47;46.37;101492.69;5009258;28;9687;-77
2022/12/19 03:36:48;;;;;;;;;58.00;45.25;;;;;7.47;45.90;101486.63;5013116;28;8856;-77
2022/12/19 03:39:19;;;;;;;;;60.75;48.75;;;;;7.32;45.86;101481.66;5028611;28;8855;-77
2022/12/19 03:44:41;;;;;;;;;52.25;44.50;;;;;7.39;45.56;101484.59;5012271;28;8971;-78
2022/12/19 03:47:15;;;;;;;;;47.75;42.25;;;;;7.42;45.76;101479.50;5008377;28;8890;-77
2022/12/19 03:49:46;;;;;;;;;55.00;46.00;;;;;7.36;45.75;101492.22;5009853;28;8878;-77
2022/12/19 03:52:24;;;;;;;;;57.50;42.75;;;;;7.46;46.60;101485.72;5010173;28;8854;-77
2022/12/19 03:54:59;;;;;;;;;65.00;46.00;;;;;7.48;46.89;101481.47;5019535;28;8844;-78
2022/12/19 03:57:33;;;;;;;;;54.00;45.00;;;;;7.40;46.59;101485.47;5011509;28;8852;-76
2022/12/19 04:00:05;;;;;;;;;46.50;43.75;;;;;7.39;46.13;101486.25;5043245;28;8859;-77
2022/12/19 04:02:42;;;;;;;;;57.75;44.50;;;;;7.35;45.98;101471.38;5016552;28;8856;-76
2022/12/19 04:05:18;;;;;;;;;49.25;44.25;;;;;7.39;45.89;101478.47;4991120;28;8878;-77
2022/12/19 04:07:48;;;;;;;;;49.50;42.50;;;;;7.34;45.87;101480.00;5006984;28;9006;-77
2022/12/19 04:10:21;;;;;;;;;46.75;42.00;;;;;7.41;45.93;101471.69;5023573;28;8995;-78
2022/12/19 04:12:54;;;;;;;;;52.00;45.75;;;;;7.46;46.33;101474.47;5015945;28;8879;-78
2022/12/19 04:15:34;;;;;;;;;50.50;43.75;;;;;7.32;44.64;101474.75;5043052;28;8840;-79
2022/12/19 04:18:07;;;;;;;;;41.75;40.25;;;;;7.28;45.72;101478.03;5043222;28;8879;-78
2022/12/19 04:20:41;;;;;;;;;48.75;42.25;;;;;7.20;45.75;101481.97;4993588;28;9022;-76
2022/12/19 04:23:18;;;;;;;;;54.00;46.75;;;;;7.19;46.55;101472.44;5010191;28;8898;-76
2022/12/19 04:25:50;;;;;;;;;59.25;46.75;;;;;7.08;47.36;101476.25;5042937;28;9586;-76
2022/12/19 04:28:24;;;;;;;;;57.50;47.75;;;;;7.05;46.76;101481.28;5008903;28;9681;-78
2022/12/19 04:30:54;;;;;;;;;60.75;49.75;;;;;6.92;46.86;101483.34;5013883;28;8855;-79
2022/12/19 04:33:23;;;;;;;;;50.75;42.00;;;;;6.91;46.84;101485.88;4970141;28;8857;-78
2022/12/19 04:35:53;;;;;;;;;52.75;44.00;;;;;6.92;47.66;101490.22;4970646;28;8882;-79
2022/12/19 04:38:22;;;;;;;;;60.50;45.25;;;;;6.73;47.47;101492.00;4970651;28;8883;-78
2022/12/19 04:40:50;;;;;;;;;54.75;44.00;;;;;6.69;47.48;101503.03;4986935;28;8880;-79
2022/12/19 04:43:19;;;;;;;;;64.50;49.25;;;;;6.73;47.31;101515.31;4981318;28;8884;-77
2022/12/19 04:45:48;;;;;;;;;66.25;55.00;;;;;6.58;48.71;101514.59;4985680;28;8962;-78
2022/12/19 04:48:24;;;;;;;;;78.25;62.00;;;;;6.40;48.33;101512.88;4970307;28;8864;-77
2022/12/19 04:50:55;;;;;;;;;71.25;54.50;;;;;6.36;48.88;101516.16;4968335;28;8877;-77
2022/12/19 04:53:24;;;;;;;;;54.00;48.50;;;;;6.37;49.40;101510.19;4983470;28;8887;-78
2022/12/19 04:56:00;;;;;;;;;67.00;53.25;;;;;6.46;49.13;101506.22;4983313;28;8859;-77
2022/12/19 04:58:29;;;;;;;;;67.00;55.25;;;;;6.22;49.84;101505.13;4967259;28;8953;-79
2022/12/19 05:01:01;;;;;;;;;69.25;55.25;;;;;6.19;50.68;101506.69;4981532;28;8863;-78
2022/12/19 05:03:30;;;;;;;;;81.67;64.00;;;;;6.21;50.79;101499.88;4937459;28;8855;-78
2022/12/19 05:06:09;;;;;;;;;84.67;62.67;;;;;6.05;51.92;101488.75;4990924;28;9134;-78
2022/12/19 05:08:40;;;;;;;;;92.25;67.50;;;;;5.91;52.53;101486.28;5023883;28;9039;-79
2022/12/19 05:11:10;;;;;;;;;88.00;68.00;;;;;5.69;54.03;101482.63;5024087;28;9494;-80
2022/12/19 05:13:48;;;;;;;;;81.67;65.67;;;;;5.69;54.38;101473.94;5024414;28;9325;-78
2022/12/19 05:16:17;;;;;;;;;85.67;64.00;;;;;5.62;54.64;101475.34;4991620;28;9183;-79
2022/12/19 05:18:46;;;;;;;;;82.00;63.33;;;;;5.22;56.12;101479.34;5007266;28;9107;-79
2022/12/19 05:21:16;;;;;;;;;93.00;71.33;;;;;5.29;56.06;101496.06;5007534;28;9101;-80
2022/12/19 05:23:45;;;;;;;;;99.50;77.00;;;;;5.33;56.09;101484.19;5008395;28;9336;-78
2022/12/19 05:26:13;;;;;;;;;99.50;73.25;;;;;5.26;56.34;101486.47;5010755;28;9841;-78
2022/12/19 05:28:42;;;;;;;;;88.67;68.00;;;;;5.32;56.29;101480.72;4990730;28;9657;-79
2022/12/19 05:31:13;;;;;;;;;80.33;63.67;;;;;5.31;55.82;101486.69;5039458;28;9042;-77
2022/12/19 05:33:42;;;;;;;;;84.67;66.67;;;;;5.09;57.18;101492.44;5023691;28;9078;-76
2022/12/19 05:36:12;;;;;;;;;82.67;64.33;;;;;5.14;56.87;101491.00;4982889;28;8987;-77
2022/12/19 05:38:42;;;;;;;;;93.00;68.00;;;;;5.10;56.98;101485.56;5006714;28;9008;-77
2022/12/19 05:41:15;;;;;;;;;89.33;69.00;;;;;5.26;56.63;101490.75;5005571;28;9132;-77
2022/12/19 05:43:44;;;;;;;;;86.33;67.33;;;;;5.38;56.20;101483.63;5039503;28;9198;-77
2022/12/19 05:46:12;;;;;;;;;82.00;64.33;;;;;5.32;56.33;101498.81;5007603;28;9458;-78
2022/12/19 05:48:41;;;;;;;;;81.67;65.33;;;;;5.22;57.08;101497.47;5006599;28;8977;-78
2022/12/19 05:51:10;;;;;;;;;85.33;67.00;;;;;5.26;56.85;101506.28;5008292;28;9185;-78
2022/12/19 05:53:40;;;;;;;;;71.67;56.67;;;;;5.28;56.88;101509.81;5007844;28;9267;-77
2022/12/19 05:56:12;;;;;;;;;83.33;66.00;;;;;5.45;56.00;101514.19;5022742;28;8961;-77
2022/12/19 05:58:42;;;;;;;;;84.67;66.67;;;;;5.44;56.04;101501.16;5040121;28;9031;-76
2022/12/19 06:01:12;;;;;;;;;80.67;64.33;;;;;5.59;55.93;101499.34;4992935;28;9699;-77
2022/12/19 06:03:41;;;;;;;;;88.00;68.00;;;;;5.62;55.59;101501.22;5035943;28;9010;-77
2022/12/19 06:06:12;;;;;;;;;85.33;65.67;;;;;5.60;55.34;101493.38;5064023;28;9080;-79
2022/12/19 06:08:41;;;;;;;;;84.33;65.67;;;;;5.66;55.45;101498.88;5031991;28;9015;-79
2022/12/19 06:11:13;;;;;;;;;69.33;58.33;;;;;5.59;55.02;101508.81;5022373;28;8969;-75
2022/12/19 06:13:42;;;;;;;;;82.00;63.75;;;;;5.63;54.88;101510.75;5028549;28;9049;-77
2022/12/19 06:16:13;;;;;;;;;71.75;55.75;;;;;5.68;55.02;101511.88;5037852;28;8965;-77
2022/12/19 06:18:43;;;;;;;;;80.00;63.00;;;;;5.65;54.37;101511.72;5048635;28;8834;-78
2022/12/19 06:21:14;;;;;;;;;36.25;30.75;;;;;5.55;54.56;101514.66;5046168;28;8870;-78
2022/12/19 06:23:44;;;;;;;;;81.00;64.00;;;;;5.72;54.84;101513.81;5048452;28;8881;-78
2022/12/19 06:26:16;;;;;;;;;79.00;62.67;;;;;5.81;54.84;101511.69;5048294;28;9081;-78
2022/12/19 06:28:48;;;;;;;;;94.00;67.33;;;;;5.95;54.17;101514.09;5044796;28;8926;-75
2022/12/19 06:31:17;;;;;;;;;82.33;63.00;;;;;5.95;53.92;101521.84;5031499;28;9182;-80
2022/12/19 06:33:46;;;;;;;;;81.25;58.75;;;;;5.83;54.17;101514.38;5030370;28;9778;-79
2022/12/19 06:36:18;;;;;;;;;76.50;60.00;;;;;5.94;53.64;101512.31;5018602;28;8859;-79
2022/12/19 06:38:47;;;;;;;;;81.25;61.75;;;;;5.97;53.99;101510.81;5046657;28;8848;-80
2022/12/19 06:44:02;;;;;;;;;74.50;59.25;;;;;5.90;53.43;101528.50;4972065;28;8916;-78
2022/12/19 06:46:31;;;;;;;;;74.75;61.75;;;;;5.71;53.70;101529.25;4956253;28;8853;-78
2022/12/19 06:49:00;;;;;;;;;79.75;63.25;;;;;5.60;53.86;101533.91;4960080;28;9601;-78
2022/12/19 06:51:29;;;;;;;;;66.00;51.75;;;;;5.75;53.24;101523.47;4951946;28;8990;-79
2022/12/19 06:53:57;;;;;;;;;68.00;56.25;;;;;5.81;53.02;101524.63;4953784;28;8852;-78
2022/12/19 06:56:27;;;;;;;;;70.75;54.75;;;;;5.51;53.90;101521.38;4917378;28;8886;-78
2022/12/19 06:58:56;;;;;;;;;76.25;56.00;;;;;5.62;53.08;101516.75;4934232;28;8866;-80
2022/12/19 07:01:38;;;;;;;;;66.75;55.50;;;;;5.78;53.05;101536.53;4928033;28;8895;-76
2022/12/19 07:04:11;;;;;;;;;61.75;52.00;;;;;5.73;53.63;101533.72;4936563;28;8871;-77
2022/12/19 07:06:39;;;;;;;;;74.00;56.25;;;;;5.72;53.33;101539.69;4969289;28;8949;-79
2022/12/19 07:09:17;;;;;;;;;71.25;56.75;;;;;5.75;53.00;101541.56;4968820;28;8886;-77
2022/12/19 07:11:46;;;;;;;;;72.50;56.25;;;;;5.88;52.84;101537.88;4939885;28;8871;-78
2022/12/19 07:14:15;;;;;;;;;72.25;56.00;;;;;5.82;53.07;101541.06;4967425;28;8849;-78
2022/12/19 07:16:44;;;;;;;;;70.75;57.25;;;;;5.86;52.86;101543.00;4974566;28;8979;-77
2022/12/19 07:19:13;;;;;;;;;59.00;45.50;;;;;5.88;52.18;101543.06;4974477;28;8860;-80
2022/12/19 07:21:42;;;;;;;;;73.75;55.00;;;;;5.86;52.67;101545.59;5019739;28;8994;-80
2022/12/19 07:24:13;;;;;;;;;66.50;54.25;;;;;5.96;52.54;101545.28;5034363;28;8878;-81
2022/12/19 07:26:43;;;;;;;;;55.25;46.50;;;;;5.95;51.97;101527.94;4993750;28;8854;-81
2022/12/19 07:29:14;;;;;;;;;64.75;52.75;;;;;6.06;51.84;101525.91;5009880;28;8968;-79
2022/12/19 07:31:42;;;;;;;;;75.75;55.50;;;;;6.08;52.45;101516.50;4992761;28;8854;-79
2022/12/19 07:34:11;;;;;;;;;56.25;48.50;;;;;6.09;51.83;101507.94;4993263;28;8850;-80
2022/12/19 07:36:40;;;;;;;;;74.75;57.50;;;;;6.11;52.15;101498.53;4994660;28;8858;-78
2022/12/19 07:39:09;;;;;;;;;72.25;58.50;;;;;6.10;51.76;101501.94;5019550;28;9008;-78
2022/12/19 07:41:38;;;;;;;;;70.00;54.50;;;;;6.19;51.92;101502.38;5025474;28;8858;-79
2022/12/19 07:44:07;;;;;;;;;72.25;57.00;;;;;6.17;51.48;101497.94;4992813;28;8882;-80
2022/12/19 07:46:37;;;;;;;;;74.50;59.75;;;;;6.43;50.93;101504.41;5024755;28;9581;-80
2022/12/19 07:49:06;;;;;;;;;68.00;55.25;;;;;6.30;51.34;101502.91;5013124;28;8858;-79
2022/12/19 07:51:34;;;;;;;;;67.75;53.00;;;;;6.16;50.80;101497.06;4998125;28;8866;-80
2022/12/19 07:54:03;;;;;;;;;68.75;52.50;;;;;6.24;51.42;101502.63;5025864;28;8943;-79
2022/12/19 07:56:32;;;;;;;;;65.50;51.50;;;;;6.42;50.43;101500.00;5025362;28;8889;-79
2022/12/19 07:59:01;;;;;;;;;60.75;48.50;;;;;6.46;50.47;101506.22;4997211;28;9678;-81
2022/12/19 08:01:29;;;;;;;;;63.00;49.75;;;;;6.29;50.00;101495.94;5011204;28;8855;-78
2022/12/19 08:04:00;;;;;;;;;63.25;49.50;;;;;6.20;50.76;101486.03;5024076;28;8914;-76
2022/12/19 08:06:28;;;;;;;;;65.00;51.75;;;;;6.36;50.62;101485.06;5028966;28;10054;-74
2022/12/19 08:08:57;;;;;;;;;61.00;46.50;;;;;6.68;49.30;101488.28;5028776;28;8852;-76
2022/12/19 08:11:28;;;;;;;;;64.25;50.50;;;;;6.72;49.29;101497.97;4994698;28;8864;-74
2022/12/19 08:13:57;;;;;;;;;64.75;52.50;;;;;6.75;49.39;101500.72;5040921;28;8842;-75
2022/12/19 08:16:27;;;;;;;;;60.50;49.00;;;;;6.75;49.58;101503.31;5015049;28;8863;-78
2022/12/19 08:18:56;;;;;;;;;62.50;49.00;;;;;6.93;48.90;101521.41;5007918;28;8854;-80
2022/12/19 08:21:26;;;;;;;;;54.50;46.75;;;;;7.10;48.70;101521.31;5010060;28;8859;-79
2022/12/19 08:23:55;;;;;;;;;61.00;49.25;;;;;7.18;47.66;101528.63;5027863;28;8973;-79
2022/12/19 08:26:24;;;;;;;;;57.50;45.50;;;;;7.31;48.28;101518.78;5008797;28;8997;-78
2022/12/19 08:28:55;;;;;;;;;57.75;48.00;;;;;7.35;48.18;101515.50;5023017;28;8906;-78
2022/12/19 08:31:25;;;;;;;;;51.50;42.50;;;;;7.34;48.63;101517.22;5011785;28;9609;-79
2022/12/19 08:33:56;;;;;;;;;58.00;47.00;;;;;7.41;47.84;101523.59;5007977;28;8955;-78
2022/12/19 08:36:26;;;;;;;;;58.75;47.25;;;;;7.52;46.72;101522.31;4985393;28;8874;-78
2022/12/19 08:38:56;;;;;;;;;59.50;47.75;;;;;7.53;47.22;101526.72;5023905;28;8890;-78
2022/12/19 08:41:25;;;;;;;;;53.00;45.00;;;;;7.70;46.38;101513.59;5020403;28;8935;-79
2022/12/19 08:43:54;;;;;;;;;46.50;41.50;;;;;7.53;46.92;101516.31;5027445;28;8887;-79
2022/12/19 08:46:24;;;;;;;;;53.00;43.25;;;;;7.42;46.86;101512.38;5027677;28;8879;-79
2022/12/19 08:48:53;;;;;;;;;51.25;41.75;;;;;7.67;46.30;101514.31;5044385;28;8999;-79
2022/12/19 08:51:21;;;;;;;;;59.75;45.25;;;;;7.54;47.49;101505.13;5010992;28;8867;-77
2022/12/19 08:53:51;;;;;;;;;48.75;44.25;;;;;7.56;47.03;101499.97;5010753;28;8867;-78
2022/12/19 08:56:22;;;;;;;;;55.50;43.75;;;;;7.64;46.16;101496.03;5025253;28;8816;-78
2022/12/19 08:58:51;;;;;;;;;53.25;42.75;;;;;7.68;46.48;101484.94;5027135;28;8879;-78
2022/12/19 09:01:22;;;;;;;;;46.00;38.25;;;;;7.69;46.21;101486.69;5026720;28;8925;-79
2022/12/19 09:03:51;;;;;;;;;40.75;36.25;;;;;7.71;46.51;101492.88;5027602;28;8879;-77
2022/12/19 09:06:40;;;;;;;;;52.50;45.75;;;;;7.58;47.20;101488.88;5025166;28;8858;-79
2022/12/19 09:09:10;;;;;;;;;53.25;42.25;;;;;7.54;46.29;101481.78;5012205;28;8960;-78
2022/12/19 09:11:39;;;;;;;;;45.75;39.25;;;;;7.55;46.60;101480.94;5028836;28;9037;-78
2022/12/19 09:14:15;;;;;;;;;38.50;37.00;;;;;7.71;46.22;101484.19;5062794;28;8892;-79
2022/12/19 09:16:49;;;;;;;;;43.00;38.00;;;;;7.53;46.17;101476.50;5027604;28;8898;-79
2022/12/19 09:19:18;;;;;;;;;50.75;43.25;;;;;7.41;47.37;101467.38;5029430;28;8864;-78
2022/12/19 09:21:46;;;;;;;;;45.00;38.00;;;;;7.53;46.58;101464.41;5050340;28;8877;-80
2022/12/19 09:24:16;;;;;;;;;45.50;37.75;;;;;7.47;47.25;101476.25;5010657;28;8874;-80
2022/12/19 09:26:45;;;;;;;;;39.75;38.50;;;;;7.75;46.72;101486.06;5010479;28;8998;-78
2022/12/19 09:29:14;;;;;;;;;43.00;36.75;;;;;7.81;46.54;101489.84;4999725;28;8870;-81
2022/12/19 09:31:49;;;;;;;;;32.50;30.00;;;;;7.90;46.95;101485.84;5021827;28;8897;-79
2022/12/19 09:34:24;;;;;;;;;44.00;37.00;;;;;7.97;46.07;101475.75;5004830;28;9554;-79
2022/12/19 09:37:07;;;;;;;;;42.50;37.00;;;;;7.94;45.81;101474.75;5014453;28;8872;-79
2022/12/19 09:39:37;;;;;;;;;41.25;37.00;;;;;8.06;45.66;101470.06;4996900;28;8893;-80
2022/12/19 09:42:24;;;;;;;;;48.25;40.25;;;;;8.15;45.80;101457.44;5030051;28;8855;-78
2022/12/19 09:45:13;;;;;;;;;31.50;24.75;;;;;8.05;46.21;101447.50;5030371;28;8963;-78
2022/12/19 09:48:00;;;;;;;;;41.00;37.75;;;;;7.91;45.49;101451.25;5013673;28;8886;-78
2022/12/19 09:50:43;;;;;;;;;36.25;35.50;;;;;8.06;46.38;101444.09;5010103;28;8963;-80
2022/12/19 09:53:19;;;;;;;;;34.25;31.50;;;;;8.19;45.73;101456.75;5014391;28;8847;-79
2022/12/19 09:55:53;;;;;;;;;36.00;32.75;;;;;8.35;45.38;101455.63;5021105;28;8873;-80
2022/12/19 09:58:31;;;;;;;;;51.25;38.50;;;;;8.52;46.43;101442.44;5021177;28;8862;-78
2022/12/19 10:01:06;;;;;;;;;41.75;39.25;;;;;8.59;45.53;101421.91;5009418;28;9006;-77
2022/12/19 10:03:39;;;;;;;;;43.00;34.75;;;;;8.67;45.62;101410.94;5030417;28;8889;-79
2022/12/19 10:06:17;;;;;;;;;50.25;38.50;;;;;8.65;44.75;101423.88;5019886;28;8866;-79
2022/12/19 10:09:13;;;;;;;;;46.75;38.25;;;;;8.67;44.65;101426.53;4996099;28;9553;-77
2022/12/19 10:12:21;;;;;;;;;39.00;36.25;;;;;8.92;44.72;101425.72;5045760;28;8856;-78
2022/12/19 10:15:19;;;;;;;;;46.00;39.75;;;;;8.67;44.45;101435.22;5025701;28;8928;-78
2022/12/19 10:18:25;;;;;;;;;32.50;26.50;;;;;8.82;45.21;101434.91;5046482;28;8860;-77
2022/12/19 10:21:05;;;;;;;;;50.00;38.00;;;;;8.93;45.70;101430.09;4938056;28;9062;-79
2022/12/19 10:23:56;;;;;;;;;43.50;39.75;;;;;8.94;44.79;101417.16;4980854;28;8880;-78
2022/12/19 10:26:30;;;;;;;;;44.25;36.25;;;;;9.10;44.46;101408.16;4953659;28;8871;-80
2022/12/19 10:29:14;;;;;;;;;44.75;35.75;;;;;9.07;44.43;101405.44;4953748;28;9002;-78
2022/12/19 10:31:54;;;;;;;;;51.00;41.00;;;;;9.07;44.13;101400.25;4969614;28;8871;-78
2022/12/19 10:34:28;;;;;;;;;41.50;37.00;;;;;9.27;44.53;101400.94;4925592;28;8871;-80
2022/12/19 10:37:01;;;;;;;;;44.75;39.00;;;;;9.45;44.29;101407.63;4969889;28;8860;-80
2022/12/19 10:39:58;;;;;;;;;46.25;37.50;;;;;9.35;43.48;101402.09;4959781;28;8875;-80
2022/12/19 10:42:34;;;;;;;;;47.50;40.25;;;;;9.21;43.99;101405.09;4969017;28;8983;-78
2022/12/19 10:45:13;;;;;;;;;33.50;30.75;;;;;9.19;44.28;101402.41;4933544;28;8850;-78
2022/12/19 10:47:42;;;;;;;;;36.75;33.50;;;;;9.14;44.03;101398.75;4968248;28;8942;-78
2022/12/19 10:50:13;;;;;;;;;41.75;39.50;;;;;9.22;44.79;101396.41;4953056;28;8875;-77
2022/12/19 10:52:51;;;;;;;;;45.25;39.75;;;;;9.10;44.66;101389.06;4949302;28;8886;-79
2022/12/19 10:55:33;;;;;;;;;41.75;38.25;;;;;9.20;43.52;101374.66;4946174;28;8871;-78
2022/12/19 10:58:17;;;;;;;;;46.50;40.25;;;;;9.09;43.97;101395.09;4988356;28;8884;-79
2022/12/19 11:01:00;;;;;;;;;41.75;37.50;;;;;9.16;44.16;101374.53;5012699;28;9734;-79
2022/12/19 11:03:28;;;;;;;;;30.75;27.00;;;;;9.16;44.92;101373.66;5030078;28;8883;-78
2022/12/19 11:06:01;;;;;;;;;39.25;37.00;;;;;9.29;45.20;101364.56;5013481;28;8863;-79
2022/12/19 11:08:32;;;;;;;;;41.25;38.00;;;;;9.24;44.63;101350.50;5012241;28;9017;-78
2022/12/19 11:11:12;;;;;;;;;38.00;30.50;;;;;9.40;45.07;101345.00;4991694;28;8846;-79
2022/12/19 11:14:21;;;;;;;;;47.50;42.00;;;;;9.46;44.61;101341.69;5008720;28;9600;-77
2022/12/19 11:17:26;;;;;;;;;50.00;39.25;;;;;9.42;44.85;101339.84;5013314;28;8853;-77
2022/12/19 11:20:20;;;;;;;;;43.25;37.00;;;;;9.26;45.24;101346.22;5026961;28;8970;-78
2022/12/19 11:23:14;;;;;;;;;37.75;36.00;;;;;9.40;44.60;101352.78;5011689;28;8952;-79
2022/12/19 11:26:05;;;;;;;;;17.25;8.50;;;;;9.38;44.95;101348.38;5043193;28;8898;-78
2022/12/19 11:28:58;;;;;;;;;41.00;36.75;;;;;9.42;43.77;101347.66;5028117;28;8860;-79
2022/12/19 11:31:48;;;;;;;;;44.50;39.25;;;;;9.08;44.71;101336.97;5030648;28;8866;-78
2022/12/19 11:34:49;;;;;;;;;41.25;35.00;;;;;8.77;44.74;101333.31;5025897;28;8860;-79
2022/12/19 11:37:27;;;;;;;;;44.50;38.00;;;;;8.74;45.13;101322.78;5028241;28;9955;-80
2022/12/19 11:40:01;;;;;;;;;45.25;37.50;;;;;8.93;45.38;101331.22;5026792;28;8870;-79
2022/12/19 11:42:35;;;;;;;;;44.75;38.00;;;;;8.68;45.71;101345.97;5011713;28;8875;-79
2022/12/19 11:45:11;;;;;;;;;47.50;39.25;;;;;8.89;45.77;101338.03;5028074;28;8987;-79
2022/12/19 11:47:48;;;;;;;;;46.75;41.75;;;;;8.96;46.19;101329.63;5023731;28;8862;-78
2022/12/19 11:50:23;;;;;;;;;49.75;40.75;;;;;9.08;45.06;101342.16;5026605;28;9605;-79
2022/12/19 11:52:58;;;;;;;;;45.25;39.00;;;;;8.80;45.06;101344.66;5028555;28;8908;-78
2022/12/19 11:55:44;;;;;;;;;46.00;40.25;;;;;8.94;45.31;101348.59;5028298;28;8888;-79
2022/12/19 11:58:13;;;;;;;;;52.25;42.75;;;;;8.90;45.07;101352.84;4998874;28;8843;-77
2022/12/19 12:00:51;;;;;;;;;51.25;42.00;;;;;8.95;44.89;101356.47;5011008;28;8872;-80
2022/12/19 12:03:44;;;;;;;;;43.50;40.25;;;;;9.14;45.72;101358.00;5027932;28;9062;-79
2022/12/19 12:06:35;;;;;;;;;45.50;38.50;;;;;9.13;45.58;101350.13;5029233;28;8880;-80